Time,TemperatureF,DewpointF,PressureIn,WindDirection,WindDirectionDegrees,WindSpeedMPH,WindSpeedGustMPH,Humidity,HourlyPrecipIn,Conditions,Clouds,dailyrainin,SolarRadiationWatts/m^2,SoftwareType,DateUTC
2013-07-18 00:02:00,80.0,73.0,30.13,West,261,0.0,1.0,79,-99.99,,,-99.99,0.000000,,2013-07-18 04:02:00,
2013-07-18 12:32:00,90.0,73.0,30.07,West,263,3.0,10.0,57,-99.99,,,-99.99,833.000000,,2013-07-18 16:32:00,
2013-07-18 13:43:00,93.0,72.0,30.05,SSW,194,4.0,12.0,51,-99.99,,,-99.99,315.000000,,2013-07-18 17:43:00,
2013-07-18 14:11:00,93.0,71.0,30.04,WNW,291,4.0,12.0,49,-99.99,,,-99.99,970.000000,,2013-07-18 18:11:00,
2013-07-18 14:43:00,94.0,71.0,30.02,SW,215,2.0,11.0,48,-99.99,,,-99.99,909.000000,,2013-07-18 18:43:00,
2013-07-18 15:43:00,94.0,71.0,30.01,SW,224,3.0,10.0,48,-99.99,,,-99.99,188.000000,,2013-07-18 19:43:00,
2013-07-18 16:02:00,95.0,69.0,30.01,WSW,238,3.0,10.0,43,-99.99,,,-99.99,789.000000,,2013-07-18 20:02:00,
2013-07-18 16:52:00,93.0,70.0,29.98,SW,233,6.0,12.0,48,-99.99,,,-99.99,705.000000,,2013-07-18 20:52:00,
2013-07-18 17:01:00,93.0,70.0,29.98,SW,220,5.0,11.0,47,-99.99,,,-99.99,649.000000,,2013-07-18 21:01:00,
2013-07-18 17:11:00,93.0,70.0,29.98,SW,223,2.0,12.0,48,-99.99,,,-99.99,633.000000,,2013-07-18 21:11:00,
2013-07-18 17:22:00,94.0,70.0,29.96,WSW,247,2.0,10.0,46,-99.99,,,-99.99,615.000000,,2013-07-18 21:22:00,
2013-07-18 17:32:00,94.0,69.0,29.96,SSW,192,7.0,14.0,45,-99.99,,,-99.99,573.000000,,2013-07-18 21:32:00,
2013-07-18 17:43:00,94.0,71.0,29.96,SW,232,4.0,11.0,47,-99.99,,,-99.99,557.000000,,2013-07-18 21:43:00,
2013-07-18 17:52:00,93.0,70.0,29.96,WSW,251,5.0,15.0,48,-99.99,,,-99.99,529.000000,,2013-07-18 21:52:00,
2013-07-18 18:01:00,93.0,70.0,29.96,SW,229,4.0,12.0,48,-99.99,,,-99.99,497.000000,,2013-07-18 22:01:00,
2013-07-18 18:11:00,93.0,70.0,29.95,SW,215,6.0,12.0,47,-99.99,,,-99.99,480.000000,,2013-07-18 22:11:00,
2013-07-18 18:43:00,92.0,70.0,29.94,SW,221,5.0,13.0,49,-99.99,,,-99.99,381.000000,,2013-07-18 22:43:00,
2013-07-18 19:22:00,91.0,70.0,29.93,SW,229,6.0,11.0,51,-99.99,,,-99.99,288.000000,,2013-07-18 23:22:00,
2013-07-18 19:42:00,91.0,73.0,29.93,SW,232,3.0,10.0,55,-99.99,,,-99.99,204.000000,,2013-07-18 23:42:00,
2013-07-18 19:52:00,91.0,73.0,29.93,SW,227,2.0,5.0,55,-99.99,,,-99.99,178.000000,,2013-07-18 23:52:00,
2013-07-18 20:01:00,90.0,72.0,29.93,SW,228,5.0,10.0,55,-99.99,,,-99.99,148.000000,,2013-07-19 00:01:00,
2013-07-18 20:11:00,90.0,73.0,29.93,WSW,250,2.0,7.0,57,-99.99,,,-99.99,123.000000,,2013-07-19 00:11:00,
2013-07-18 20:22:00,89.0,72.0,29.93,WSW,244,4.0,7.0,58,-99.99,,,-99.99,98.000000,,2013-07-19 00:22:00,
2013-07-18 20:32:00,89.0,73.0,29.93,WSW,244,2.0,6.0,60,-99.99,,,-99.99,77.000000,,2013-07-19 00:32:00,
2013-07-18 20:43:00,88.0,72.0,29.92,WSW,254,4.0,7.0,60,-99.99,,,-99.99,54.000000,,2013-07-19 00:43:00,
2013-07-18 20:52:00,88.0,73.0,29.93,WSW,238,2.0,8.0,61,-99.99,,,-99.99,39.000000,,2013-07-19 00:52:00,
2013-07-18 21:01:00,87.0,72.0,29.93,WSW,238,2.0,6.0,62,-99.99,,,-99.99,12.000000,,2013-07-19 01:01:00,
2013-07-18 21:11:00,87.0,73.0,29.93,WSW,238,0.0,7.0,64,-99.99,,,-99.99,7.000000,,2013-07-19 01:11:00,
2013-07-18 21:52:00,85.0,74.0,29.93,WSW,238,2.0,5.0,69,-99.99,,,-99.99,0.000000,,2013-07-19 01:52:00,